createdAt,value
2018-01-20T00:00:58.396Z,-4.86
2018-01-20T00:01:58.396Z,-4.85
2018-01-20T00:02:58.396Z,-4.81
2018-01-20T00:03:58.398Z,-4.86
2018-01-20T00:04:58.400Z,-4.83
2018-01-20T00:05:58.400Z,-4.86
2018-01-20T00:06:58.402Z,-4.75
2018-01-20T00:07:58.403Z,-4.78
2018-01-20T00:08:58.403Z,-4.87
2018-01-20T00:09:58.409Z,-4.85
2018-01-20T00:10:58.407Z,-4.85
2018-01-20T00:11:58.409Z,-4.85
2018-01-20T00:12:58.409Z,-4.79
2018-01-20T00:13:58.411Z,-4.79
2018-01-20T00:14:58.419Z,-4.86
2018-01-20T00:15:58.416Z,-4.81
2018-01-20T00:16:58.415Z,-4.85
2018-01-20T00:17:58.417Z,-4.87
2018-01-20T00:18:58.419Z,-4.87
2018-01-20T00:19:58.421Z,-4.86
2018-01-20T00:20:58.420Z,-4.83
2018-01-20T00:21:58.423Z,-4.83
2018-01-20T00:22:58.425Z,-4.96
2018-01-20T00:23:58.425Z,-4.90
2018-01-20T00:24:58.426Z,-4.90
2018-01-20T00:25:58.428Z,-4.87
2018-01-20T00:26:58.436Z,-4.87
2018-01-20T00:27:58.432Z,-4.90
2018-01-20T00:28:58.433Z,-4.90
2018-01-20T00:29:58.434Z,-4.93
2018-01-20T00:30:58.436Z,-4.97
2018-01-20T00:31:58.447Z,-4.93
2018-01-20T00:32:58.439Z,-5.08
2018-01-20T00:33:58.440Z,-5.07
2018-01-20T00:34:58.443Z,-5.03
2018-01-20T00:35:58.443Z,-5.11
2018-01-20T00:36:58.447Z,-4.97
2018-01-20T00:37:58.446Z,-5.10
2018-01-20T00:38:58.447Z,-5.04
2018-01-20T00:39:58.450Z,-5.07
2018-01-20T00:40:58.453Z,-5.06
2018-01-20T00:41:58.452Z,-5.11
2018-01-20T00:42:58.454Z,-4.97
2018-01-20T00:43:58.463Z,-5.14
2018-01-20T00:44:58.456Z,-5.07
2018-01-20T00:45:58.458Z,-5.14
2018-01-20T00:46:58.460Z,-5.18
2018-01-20T00:47:58.461Z,-5.14
2018-01-20T00:48:58.469Z,-5.10
2018-01-20T00:49:58.464Z,-5.04
2018-01-20T00:50:58.466Z,-5.11
2018-01-20T00:51:58.468Z,-5.11
2018-01-20T00:52:58.469Z,-5.23
2018-01-20T00:53:58.469Z,-5.23
2018-01-20T00:54:58.472Z,-5.23
2018-01-20T00:55:58.472Z,-5.19
2018-01-20T00:56:58.478Z,-5.35
2018-01-20T00:57:58.498Z,-5.41
2018-01-20T00:58:58.476Z,-5.37
2018-01-20T00:59:58.480Z,-5.44
2018-01-20T01:00:58.478Z,-5.41
2018-01-20T01:01:58.479Z,-5.39
2018-01-20T01:02:58.482Z,-5.41
2018-01-20T01:03:58.485Z,-5.43
2018-01-20T01:04:58.483Z,-5.44
2018-01-20T01:05:58.486Z,-5.41
2018-01-20T01:06:58.487Z,-5.47
2018-01-20T01:07:58.495Z,-5.51
2018-01-20T01:08:58.488Z,-5.57
2018-01-20T01:09:58.490Z,-5.55
2018-01-20T01:10:58.491Z,-5.53
2018-01-20T01:11:58.491Z,-5.53
2018-01-20T01:12:58.496Z,-5.53
2018-01-20T01:13:58.494Z,-5.43
2018-01-20T01:14:58.495Z,-5.59
2018-01-20T01:15:58.496Z,-5.53
2018-01-20T01:16:58.498Z,-5.47
2018-01-20T01:17:58.498Z,-5.43
2018-01-20T01:18:58.499Z,-5.53
2018-01-20T01:19:58.500Z,-5.48
2018-01-20T01:20:58.503Z,-5.51
2018-01-20T01:21:58.502Z,-5.46
2018-01-20T01:22:58.502Z,-5.43
2018-01-20T01:23:58.504Z,-5.46
2018-01-20T01:24:58.503Z,-5.41
2018-01-20T01:25:58.506Z,-5.43
2018-01-20T01:26:58.507Z,-5.47
2018-01-20T01:27:58.508Z,-5.53
2018-01-20T01:28:58.507Z,-5.54
2018-01-20T01:29:58.510Z,-5.53
2018-01-20T01:30:58.510Z,-5.51
2018-01-20T01:31:58.514Z,-5.51
2018-01-20T01:32:58.511Z,-5.59
2018-01-20T01:33:58.513Z,-5.64
2018-01-20T01:34:58.513Z,-5.66
2018-01-20T01:35:58.515Z,-5.59
2018-01-20T01:36:58.515Z,-5.61
2018-01-20T01:37:58.519Z,-5.57
2018-01-20T01:38:58.516Z,-5.65
2018-01-20T01:39:58.517Z,-5.62
2018-01-20T01:40:58.521Z,-5.69
2018-01-20T01:41:58.519Z,-5.61
2018-01-20T01:42:58.519Z,-5.74
2018-01-20T01:43:58.520Z,-5.68
2018-01-20T01:44:58.521Z,-5.66
2018-01-20T01:45:58.521Z,-5.69
2018-01-20T01:46:58.521Z,-5.75
2018-01-20T01:47:58.523Z,-5.74
2018-01-20T01:48:58.524Z,-5.80
2018-01-20T01:49:58.523Z,-5.74
2018-01-20T01:50:58.524Z,-5.68
2018-01-20T01:51:58.526Z,-5.79
2018-01-20T01:52:58.525Z,-5.84
2018-01-20T01:53:58.526Z,-5.79
2018-01-20T01:54:58.526Z,-5.83
2018-01-20T01:55:58.529Z,-5.76
2018-01-20T01:56:58.529Z,-5.75
2018-01-20T01:57:58.527Z,-5.76
2018-01-20T01:58:58.528Z,-5.80
2018-01-20T01:59:58.530Z,-5.83
2018-01-20T02:00:58.533Z,-5.82
2018-01-20T02:01:58.532Z,-5.86
2018-01-20T02:02:58.531Z,-5.94
2018-01-20T02:03:58.532Z,-6.04
2018-01-20T02:04:58.534Z,-6.00
2018-01-20T02:05:58.533Z,-6.05
2018-01-20T02:06:58.533Z,-6.04
2018-01-20T02:07:58.535Z,-5.97
2018-01-20T02:08:58.534Z,-6.03
2018-01-20T02:09:58.535Z,-6.01
2018-01-20T02:10:58.539Z,-5.86
2018-01-20T02:11:58.537Z,-5.86
2018-01-20T02:12:58.537Z,-5.83
2018-01-20T02:13:58.539Z,-5.75
2018-01-20T02:14:58.538Z,-5.86
2018-01-20T02:15:58.539Z,-5.83
2018-01-20T02:16:58.539Z,-5.72
2018-01-20T02:17:58.542Z,-5.82
2018-01-20T02:18:58.544Z,-5.76
2018-01-20T02:19:58.542Z,-5.80
2018-01-20T02:20:58.541Z,-5.89
2018-01-20T02:21:58.542Z,-5.86
2018-01-20T02:22:58.543Z,-5.92
2018-01-20T02:23:58.548Z,-5.92
2018-01-20T02:24:58.546Z,-5.86
2018-01-20T02:25:58.544Z,-5.89
2018-01-20T02:26:58.545Z,-5.93
2018-01-20T02:27:58.545Z,-5.89
2018-01-20T02:28:58.545Z,-5.89
2018-01-20T02:29:58.547Z,-5.92
2018-01-20T02:30:58.548Z,-6.04
2018-01-20T02:31:58.549Z,-6.01
2018-01-20T02:32:58.549Z,-5.90
2018-01-20T02:33:58.550Z,-5.93
2018-01-20T02:34:58.550Z,-5.83
2018-01-20T02:35:58.553Z,-5.86
2018-01-20T02:36:58.553Z,-5.83
2018-01-20T02:37:58.553Z,-5.92
2018-01-20T02:38:58.554Z,-5.93
2018-01-20T02:39:58.554Z,-5.90
2018-01-20T02:40:58.554Z,-5.89
2018-01-20T02:41:58.558Z,-5.93
2018-01-20T02:42:58.555Z,-5.84
2018-01-20T02:43:58.557Z,-5.89
2018-01-20T02:44:58.556Z,-5.92
2018-01-20T02:45:58.558Z,-5.84
2018-01-20T02:46:58.558Z,-5.89
2018-01-20T02:47:58.559Z,-5.86
2018-01-20T02:48:58.559Z,-5.89
2018-01-20T02:49:58.559Z,-5.86
2018-01-20T02:50:58.562Z,-5.86
2018-01-20T02:51:58.562Z,-5.86
2018-01-20T02:52:58.595Z,-5.94
2018-01-20T02:53:58.561Z,-5.89
2018-01-20T02:54:58.563Z,-5.86
2018-01-20T02:55:58.564Z,-5.90
2018-01-20T02:56:58.563Z,-5.92
2018-01-20T02:57:58.564Z,-5.93
2018-01-20T02:58:58.568Z,-5.86
2018-01-20T02:59:58.565Z,-5.79
2018-01-20T03:00:58.565Z,-5.83
2018-01-20T03:01:58.568Z,-5.71
2018-01-20T03:02:58.567Z,-5.79
2018-01-20T03:03:58.569Z,-5.75
2018-01-20T03:04:58.569Z,-5.79
2018-01-20T03:05:58.569Z,-5.83
2018-01-20T03:06:58.571Z,-5.83
2018-01-20T03:07:58.571Z,-5.80
2018-01-20T03:08:58.574Z,-5.87
2018-01-20T03:09:58.572Z,-5.93
2018-01-20T03:10:58.574Z,-5.89
2018-01-20T03:11:58.575Z,-6.01
2018-01-20T03:12:58.574Z,-5.97
2018-01-20T03:13:58.578Z,-6.03
2018-01-20T03:14:58.577Z,-6.00
2018-01-20T03:15:58.579Z,-5.94
2018-01-20T03:16:58.578Z,-6.05
2018-01-20T03:17:58.580Z,-6.03
2018-01-20T03:18:58.580Z,-6.07
2018-01-20T03:19:58.582Z,-6.01
2018-01-20T03:20:58.581Z,-6.04
2018-01-20T03:21:58.582Z,-5.93
2018-01-20T03:22:58.582Z,-5.94
2018-01-20T03:23:58.584Z,-5.92
2018-01-20T03:24:58.584Z,-5.84
2018-01-20T03:25:58.587Z,-5.94
2018-01-20T03:26:58.588Z,-5.84
2018-01-20T03:27:58.586Z,-5.90
2018-01-20T03:28:58.586Z,-5.83
2018-01-20T03:29:58.586Z,-5.82
2018-01-20T03:30:58.591Z,-5.84
2018-01-20T03:31:58.588Z,-5.93
2018-01-20T03:32:58.588Z,-5.89
2018-01-20T03:33:58.589Z,-5.87
2018-01-20T03:34:58.589Z,-5.93
2018-01-20T03:35:58.590Z,-5.93
2018-01-20T03:36:58.590Z,-5.89
2018-01-20T03:37:58.589Z,-5.90
2018-01-20T03:38:58.600Z,-5.86
2018-01-20T03:39:58.591Z,-5.93
2018-01-20T03:40:58.590Z,-5.87
2018-01-20T03:41:58.591Z,-5.89
2018-01-20T03:42:58.593Z,-5.86
2018-01-20T03:43:58.592Z,-5.92
2018-01-20T03:44:58.593Z,-5.90
2018-01-20T03:45:58.596Z,-5.87
2018-01-20T03:46:58.593Z,-5.92
2018-01-20T03:47:58.595Z,-5.84
2018-01-20T03:48:58.593Z,-5.83
2018-01-20T03:49:58.595Z,-5.75
2018-01-20T03:50:58.595Z,-5.75
2018-01-20T03:51:58.596Z,-5.71
2018-01-20T03:52:58.595Z,-5.75
2018-01-20T03:53:58.596Z,-5.79
2018-01-20T03:54:58.599Z,-5.79
2018-01-20T03:55:58.595Z,-5.69
2018-01-20T03:56:58.597Z,-5.66
2018-01-20T03:57:58.598Z,-5.75
2018-01-20T03:58:58.598Z,-5.66
2018-01-20T03:59:58.598Z,-5.69
2018-01-20T04:00:58.597Z,-5.72
2018-01-20T04:01:58.598Z,-5.75
2018-01-20T04:02:58.596Z,-5.64
2018-01-20T04:03:58.599Z,-5.65
2018-01-20T04:04:58.598Z,-5.65
2018-01-20T04:05:58.600Z,-5.68
2018-01-20T04:06:58.599Z,-5.72
2018-01-20T04:07:58.600Z,-5.66
2018-01-20T04:08:58.601Z,-5.74
2018-01-20T04:09:58.599Z,-5.66
2018-01-20T04:10:58.600Z,-5.69
2018-01-20T04:11:58.602Z,-5.72
2018-01-20T04:12:58.602Z,-5.72
2018-01-20T04:13:58.604Z,-5.82
2018-01-20T04:14:58.603Z,-5.75
2018-01-20T04:15:58.603Z,-5.83
2018-01-20T04:16:58.603Z,-5.76
2018-01-20T04:17:58.604Z,-5.89
2018-01-20T04:18:58.609Z,-5.90
2018-01-20T04:19:58.607Z,-5.92
2018-01-20T04:20:58.604Z,-5.90
2018-01-20T04:21:58.606Z,-5.89
2018-01-20T04:22:58.607Z,-5.89
2018-01-20T04:23:58.607Z,-5.90
2018-01-20T04:24:58.606Z,-5.87
2018-01-20T04:25:58.607Z,-5.89
2018-01-20T04:26:58.607Z,-5.90
2018-01-20T04:27:58.608Z,-5.89
2018-01-20T04:28:58.607Z,-5.84
2018-01-20T04:29:58.609Z,-5.82
2018-01-20T04:30:58.610Z,-5.75
2018-01-20T04:31:58.610Z,-5.66
2018-01-20T04:32:58.612Z,-5.69
2018-01-20T04:33:58.613Z,-5.71
2018-01-20T04:34:58.612Z,-5.62
2018-01-20T04:35:58.613Z,-5.64
2018-01-20T04:36:58.611Z,-5.65
2018-01-20T04:37:58.613Z,-5.65
2018-01-20T04:38:58.613Z,-5.55
2018-01-20T04:39:58.615Z,-5.53
2018-01-20T04:40:58.615Z,-5.61
2018-01-20T04:41:58.616Z,-5.51
2018-01-20T04:42:58.616Z,-5.51
2018-01-20T04:43:58.618Z,-5.53
2018-01-20T04:44:58.616Z,-5.41
2018-01-20T04:45:58.621Z,-5.41
2018-01-20T04:46:58.618Z,-5.39
2018-01-20T04:47:58.622Z,-5.41
2018-01-20T04:48:58.619Z,-5.37
2018-01-20T04:49:58.619Z,-5.47
2018-01-20T04:50:58.620Z,-5.37
2018-01-20T04:51:58.626Z,-5.44
2018-01-20T04:52:58.620Z,-5.46
2018-01-20T04:53:58.621Z,-5.46
2018-01-20T04:54:58.624Z,-5.46
2018-01-20T04:55:58.623Z,-5.47
2018-01-20T04:56:58.621Z,-5.43
2018-01-20T04:57:58.622Z,-5.39
2018-01-20T04:58:58.626Z,-5.41
2018-01-20T04:59:58.623Z,-5.46
2018-01-20T05:00:58.623Z,-5.46
2018-01-20T05:01:58.625Z,-5.50
2018-01-20T05:02:58.627Z,-5.50
2018-01-20T05:03:58.626Z,-5.48
2018-01-20T05:04:58.627Z,-5.47
2018-01-20T05:05:58.627Z,-5.47
2018-01-20T05:06:58.628Z,-5.44
2018-01-20T05:07:58.628Z,-5.48
2018-01-20T05:08:58.629Z,-5.44
2018-01-20T05:09:58.629Z,-5.47
2018-01-20T05:10:58.629Z,-5.46
2018-01-20T05:11:58.630Z,-5.44
2018-01-20T05:12:58.632Z,-5.44
2018-01-20T05:13:58.630Z,-5.44
2018-01-20T05:14:58.631Z,-5.41
2018-01-20T05:15:58.633Z,-5.46
2018-01-20T05:16:58.633Z,-5.43
2018-01-20T05:17:58.635Z,-5.39
2018-01-20T05:18:58.635Z,-5.43
2018-01-20T05:19:58.636Z,-5.32
2018-01-20T05:20:58.635Z,-5.36
2018-01-20T05:21:58.638Z,-5.36
2018-01-20T05:22:58.640Z,-5.43
2018-01-20T05:23:58.640Z,-5.36
2018-01-20T05:24:58.637Z,-5.35
2018-01-20T05:25:58.644Z,-5.43
2018-01-20T05:26:58.642Z,-5.46
2018-01-20T05:27:58.643Z,-5.44
2018-01-20T05:28:58.645Z,-5.51
2018-01-20T05:29:58.645Z,-5.55
2018-01-20T05:30:58.645Z,-5.54
2018-01-20T05:31:58.646Z,-5.62
2018-01-20T05:32:58.647Z,-5.62
2018-01-20T05:33:58.647Z,-5.69
2018-01-20T05:34:58.650Z,-5.72
2018-01-20T05:35:58.651Z,-5.64
2018-01-20T05:36:58.653Z,-5.64
2018-01-20T05:37:58.653Z,-5.69
2018-01-20T05:38:58.656Z,-5.64
2018-01-20T05:39:58.654Z,-5.64
2018-01-20T05:40:58.658Z,-5.64
2018-01-20T05:41:58.657Z,-5.65
2018-01-20T05:42:58.661Z,-5.74
2018-01-20T05:43:58.657Z,-5.69
2018-01-20T05:44:58.661Z,-5.69
2018-01-20T05:45:58.659Z,-5.74
2018-01-20T05:46:58.660Z,-5.69
2018-01-20T05:47:58.660Z,-5.69
2018-01-20T05:48:58.661Z,-5.69
2018-01-20T05:49:58.662Z,-5.69
2018-01-20T05:50:58.667Z,-5.69
2018-01-20T05:51:58.663Z,-5.71
2018-01-20T05:52:58.664Z,-5.75
2018-01-20T05:53:58.664Z,-5.74
2018-01-20T05:54:58.667Z,-5.69
2018-01-20T05:55:58.667Z,-5.75
2018-01-20T05:56:58.668Z,-5.68
2018-01-20T05:57:58.672Z,-5.69
2018-01-20T05:58:58.670Z,-5.72
2018-01-20T05:59:58.670Z,-5.79
2018-01-20T06:00:58.670Z,-5.74
2018-01-20T06:01:58.671Z,-5.75
2018-01-20T06:02:58.672Z,-5.75
2018-01-20T06:03:58.674Z,-5.83
2018-01-20T06:04:58.673Z,-5.80
2018-01-20T06:05:58.676Z,-5.84
2018-01-20T06:06:58.676Z,-5.83
2018-01-20T06:07:58.678Z,-5.82
2018-01-20T06:08:58.677Z,-5.83
2018-01-20T06:09:58.680Z,-5.86
2018-01-20T06:10:58.679Z,-5.83
2018-01-20T06:11:58.679Z,-5.93
2018-01-20T06:12:58.680Z,-5.89
2018-01-20T06:13:58.679Z,-5.83
2018-01-20T06:14:58.684Z,-5.89
2018-01-20T06:15:58.683Z,-5.84
2018-01-20T06:16:58.681Z,-5.84
2018-01-20T06:17:58.684Z,-5.83
2018-01-20T06:18:58.684Z,-5.75
2018-01-20T06:19:58.684Z,-5.92
2018-01-20T06:20:58.684Z,-5.82
2018-01-20T06:21:58.691Z,-5.83
2018-01-20T06:22:58.686Z,-5.86
2018-01-20T06:23:58.688Z,-5.84
2018-01-20T06:24:58.686Z,-5.80
2018-01-20T06:25:58.689Z,-5.71
2018-01-20T06:26:58.688Z,-5.72
2018-01-20T06:27:58.689Z,-5.68
2018-01-20T06:28:58.689Z,-5.68
2018-01-20T06:29:58.689Z,-5.75
2018-01-20T06:30:58.691Z,-5.69
2018-01-20T06:31:58.690Z,-5.74
2018-01-20T06:32:58.691Z,-5.79
2018-01-20T06:33:58.693Z,-5.74
2018-01-20T06:34:58.691Z,-5.74
2018-01-20T06:35:58.693Z,-5.71
2018-01-20T06:36:58.693Z,-5.79
2018-01-20T06:37:58.693Z,-5.80
2018-01-20T06:38:58.693Z,-5.79
2018-01-20T06:39:58.696Z,-5.76
2018-01-20T06:40:58.694Z,-5.74
2018-01-20T06:41:58.697Z,-5.74
2018-01-20T06:42:58.697Z,-5.76
2018-01-20T06:43:58.698Z,-5.79
2018-01-20T06:44:58.698Z,-5.82
2018-01-20T06:45:58.697Z,-5.72
2018-01-20T06:46:58.700Z,-5.82
2018-01-20T06:47:58.704Z,-5.76
2018-01-20T06:48:58.699Z,-5.84
2018-01-20T06:49:58.703Z,-5.82
2018-01-20T06:50:58.702Z,-5.74
2018-01-20T06:51:58.702Z,-5.83
2018-01-20T06:52:58.706Z,-5.76
2018-01-20T06:53:58.701Z,-5.74
2018-01-20T06:54:58.704Z,-5.82
2018-01-20T06:55:58.704Z,-5.79
2018-01-20T06:56:58.704Z,-5.74
2018-01-20T06:57:58.704Z,-5.66
2018-01-20T06:58:58.705Z,-5.74
2018-01-20T06:59:58.707Z,-5.69
2018-01-20T07:00:58.706Z,-5.71
2018-01-20T07:01:58.704Z,-5.64
2018-01-20T07:02:58.706Z,-5.72
2018-01-20T07:03:58.710Z,-5.65
2018-01-20T07:04:58.706Z,-5.64
2018-01-20T07:05:58.709Z,-5.59
2018-01-20T07:06:58.709Z,-5.68
2018-01-20T07:07:58.710Z,-5.65
2018-01-20T07:08:58.708Z,-5.53
2018-01-20T07:09:58.716Z,-5.54
2018-01-20T07:10:58.712Z,-5.59
2018-01-20T07:11:58.712Z,-5.57
2018-01-20T07:12:58.713Z,-5.55
2018-01-20T07:13:58.712Z,-5.57
2018-01-20T07:14:58.717Z,-5.54
2018-01-20T07:15:58.713Z,-5.51
2018-01-20T07:16:58.715Z,-5.51
2018-01-20T07:17:58.715Z,-5.50
2018-01-20T07:18:58.717Z,-5.50
2018-01-20T07:19:58.717Z,-5.48
2018-01-20T07:20:58.716Z,-5.51
2018-01-20T07:21:58.719Z,-5.44
2018-01-20T07:22:58.719Z,-5.44
2018-01-20T07:23:58.722Z,-5.43
2018-01-20T07:24:58.720Z,-5.44
2018-01-20T07:25:58.722Z,-5.46
2018-01-20T07:26:58.726Z,-5.43
2018-01-20T07:27:58.723Z,-5.39
2018-01-20T07:28:58.722Z,-5.37
2018-01-20T07:29:58.725Z,-5.44
2018-01-20T07:30:58.726Z,-5.41
2018-01-20T07:31:58.727Z,-5.30
2018-01-20T07:32:58.728Z,-5.35
2018-01-20T07:33:58.731Z,-5.33
2018-01-20T07:34:58.730Z,-5.39
2018-01-20T07:35:58.731Z,-5.35
2018-01-20T07:36:58.732Z,-5.35
2018-01-20T07:37:58.770Z,-5.22
2018-01-20T07:38:58.734Z,-5.23
2018-01-20T07:39:58.734Z,-5.25
2018-01-20T07:40:58.735Z,-5.11
2018-01-20T07:41:58.736Z,-5.10
2018-01-20T07:42:58.737Z,-5.17
2018-01-20T07:43:58.765Z,-5.10
2018-01-20T07:44:58.738Z,-5.11
2018-01-20T07:45:58.743Z,-5.18
2018-01-20T07:46:58.740Z,-5.06
2018-01-20T07:47:58.744Z,-5.03
2018-01-20T07:48:58.746Z,-5.06
2018-01-20T07:49:58.747Z,-5.00
2018-01-20T07:50:58.744Z,-4.99
2018-01-20T07:51:58.751Z,-4.95
2018-01-20T07:52:58.749Z,-4.87
2018-01-20T07:53:58.752Z,-4.87
2018-01-20T07:54:58.752Z,-4.96
2018-01-20T07:55:58.753Z,-4.83
2018-01-20T07:56:58.754Z,-4.85
2018-01-20T07:57:58.757Z,-4.78
2018-01-20T07:58:58.756Z,-4.81
2018-01-20T07:59:58.759Z,-4.79
2018-01-20T08:00:58.759Z,-4.61
2018-01-20T08:01:58.762Z,-4.63
2018-01-20T08:02:58.764Z,-4.63
2018-01-20T08:03:58.765Z,-4.68
2018-01-20T08:04:58.764Z,-4.67
2018-01-20T08:05:58.767Z,-4.65
2018-01-20T08:06:58.769Z,-4.65
2018-01-20T08:07:58.774Z,-4.67
2018-01-20T08:08:58.770Z,-4.68
2018-01-20T08:09:58.773Z,-4.60
2018-01-20T08:10:58.785Z,-4.60
2018-01-20T08:11:58.778Z,-4.57
2018-01-20T08:12:58.780Z,-4.67
2018-01-20T08:13:58.779Z,-4.54
2018-01-20T08:14:58.782Z,-4.65
2018-01-20T08:15:58.785Z,-4.54
2018-01-20T08:16:58.785Z,-4.57
2018-01-20T08:17:58.788Z,-4.56
2018-01-20T08:18:58.787Z,-4.53
2018-01-20T08:19:58.790Z,-4.53
2018-01-20T08:20:58.793Z,-4.43
2018-01-20T08:21:58.792Z,-4.46
2018-01-20T08:22:58.837Z,-4.46
2018-01-20T08:23:58.796Z,-4.29
2018-01-20T08:24:58.804Z,-4.32
2018-01-20T08:25:58.800Z,-4.28
2018-01-20T08:26:58.802Z,-4.28
2018-01-20T08:27:58.804Z,-4.30
2018-01-20T08:28:58.805Z,-4.49
2018-01-20T08:29:58.808Z,-4.42
2018-01-20T08:30:58.820Z,-4.56
2018-01-20T08:31:58.811Z,-4.61
2018-01-20T08:32:58.812Z,-4.65
2018-01-20T08:33:58.816Z,-4.61
2018-01-20T08:34:58.818Z,-4.63
2018-01-20T08:35:58.818Z,-4.58
2018-01-20T08:36:58.824Z,-4.61
2018-01-20T08:37:58.824Z,-4.60
2018-01-20T08:38:58.828Z,-4.75
2018-01-20T08:39:58.827Z,-4.74
2018-01-20T08:40:58.827Z,-4.77
2018-01-20T08:41:58.828Z,-4.77
2018-01-20T08:42:58.829Z,-4.81
2018-01-20T08:43:58.832Z,-4.74
2018-01-20T08:44:58.832Z,-4.69
2018-01-20T08:45:58.834Z,-4.67
2018-01-20T08:46:58.838Z,-4.65
2018-01-20T08:47:58.837Z,-4.74
2018-01-20T08:48:58.843Z,-4.61
2018-01-20T08:49:58.842Z,-4.58
2018-01-20T08:50:58.843Z,-4.68
2018-01-20T08:51:58.843Z,-4.67
2018-01-20T08:52:58.844Z,-4.63
2018-01-20T08:53:58.849Z,-4.53
2018-01-20T08:54:58.850Z,-4.42
2018-01-20T08:55:58.848Z,-4.40
2018-01-20T08:56:58.850Z,-4.40
2018-01-20T08:57:58.854Z,-4.32
2018-01-20T08:58:58.854Z,-4.32
2018-01-20T08:59:58.857Z,-4.30
2018-01-20T09:00:58.862Z,-4.15
2018-01-20T09:01:58.859Z,-4.10
2018-01-20T09:02:58.860Z,-4.06
2018-01-20T09:03:58.879Z,-4.14
2018-01-20T09:04:58.882Z,-4.18
2018-01-20T09:05:58.872Z,-4.14
2018-01-20T09:06:58.878Z,-4.04
2018-01-20T09:07:58.870Z,-4.01
2018-01-20T09:08:58.879Z,-3.93
2018-01-20T09:09:58.874Z,-3.91
2018-01-20T09:10:58.887Z,-3.86
2018-01-20T09:11:58.882Z,-3.90
2018-01-20T09:12:59.889Z,-3.83
2018-01-20T09:13:58.885Z,-3.81
2018-01-20T09:14:58.888Z,-3.86
2018-01-20T09:15:58.887Z,-3.81
2018-01-20T09:16:58.887Z,-3.63
2018-01-20T09:17:58.890Z,-3.60
2018-01-20T09:18:58.892Z,-3.69
2018-01-20T09:19:58.896Z,-3.64
2018-01-20T09:20:58.895Z,-3.56
2018-01-20T09:21:58.902Z,-3.59
2018-01-20T09:22:58.903Z,-3.49
2018-01-20T09:23:58.902Z,-3.54
2018-01-20T09:24:58.915Z,-3.43
2018-01-20T09:25:58.906Z,-3.41
2018-01-20T09:26:58.916Z,-3.31
2018-01-20T09:27:58.920Z,-3.33
2018-01-20T09:28:58.929Z,-3.17
2018-01-20T09:29:58.925Z,-3.18
2018-01-20T09:30:58.928Z,-3.15
2018-01-20T09:31:58.926Z,-3.15
2018-01-20T09:32:58.929Z,-3.05
2018-01-20T09:33:59.924Z,-3.02
2018-01-20T09:34:58.937Z,-3.10
2018-01-20T09:35:58.940Z,-2.97
2018-01-20T09:37:01.938Z,-3.05
2018-01-20T09:37:58.941Z,-2.97
2018-01-20T09:38:58.945Z,-2.81
2018-01-20T09:39:58.948Z,-2.79
2018-01-20T09:40:58.949Z,-2.74
2018-01-20T09:41:59.947Z,-2.74
2018-01-20T09:42:58.970Z,-2.73
2018-01-20T09:43:58.962Z,-2.68
2018-01-20T09:44:58.960Z,-2.85
2018-01-20T09:45:58.965Z,-2.82
2018-01-20T09:46:58.965Z,-2.91
2018-01-20T09:47:59.972Z,-2.97
2018-01-20T09:48:59.969Z,-3.10
2018-01-20T09:49:58.973Z,-3.09
2018-01-20T09:50:58.978Z,-3.14
2018-01-20T09:51:58.980Z,-3.12
2018-01-20T09:52:59.981Z,-3.06
2018-01-20T09:53:58.994Z,-2.96
2018-01-20T09:54:58.997Z,-3.05
2018-01-20T09:55:59.007Z,-3.07
2018-01-20T09:56:59.987Z,-3.15
2018-01-20T09:57:58.995Z,-3.10
2018-01-20T09:58:59.005Z,-2.96
2018-01-20T09:59:59.015Z,-2.82
2018-01-20T10:00:59.004Z,-2.77
2018-01-20T10:01:59.006Z,-2.64
2018-01-20T10:02:59.009Z,-2.66
2018-01-20T10:03:59.019Z,-2.49
2018-01-20T10:05:00.032Z,-2.56
2018-01-20T10:05:59.018Z,-2.49
2018-01-20T10:06:59.029Z,-2.35
2018-01-20T10:07:59.026Z,-2.30
2018-01-20T10:08:59.040Z,-2.39
2018-01-20T10:09:59.034Z,-2.32
2018-01-20T10:10:59.040Z,-2.16
2018-01-20T10:12:00.041Z,-2.13
2018-01-20T10:12:59.049Z,-2.08
2018-01-20T10:13:59.053Z,-2.06
2018-01-20T10:14:59.053Z,-2.03
2018-01-20T10:15:59.057Z,-2.16
2018-01-20T10:16:59.074Z,-2.34
2018-01-20T10:17:59.059Z,-2.27
2018-01-20T10:18:59.065Z,-2.16
2018-01-20T10:19:59.066Z,-2.10
2018-01-20T10:20:59.071Z,-2.12
2018-01-20T10:21:59.084Z,-2.09
2018-01-20T10:22:59.083Z,-2.05
2018-01-20T10:23:59.085Z,-2.21
2018-01-20T10:24:59.099Z,-2.34
2018-01-20T10:25:59.094Z,-2.50
2018-01-20T10:26:59.095Z,-2.42
2018-01-20T10:27:59.100Z,-2.40
2018-01-20T10:28:59.098Z,-2.32
2018-01-20T10:30:02.111Z,-2.21
2018-01-20T10:30:59.113Z,-2.13
2018-01-20T10:31:59.122Z,-2.21
2018-01-20T10:32:59.114Z,-2.06
2018-01-20T10:33:59.117Z,-2.12
2018-01-20T10:34:59.123Z,-2.05
2018-01-20T10:35:59.135Z,-2.08
2018-01-20T10:37:00.132Z,-2.02
2018-01-20T10:38:00.133Z,-2.03
2018-01-20T10:38:59.148Z,-2.00
2018-01-20T10:39:59.140Z,-2.03
2018-01-20T10:41:00.175Z,-2.15
2018-01-20T10:41:59.157Z,-2.13
2018-01-20T10:42:59.156Z,-1.95
2018-01-20T10:44:00.172Z,-2.13
2018-01-20T10:44:59.163Z,-2.10
2018-01-20T10:45:59.168Z,-2.13
2018-01-20T10:46:59.181Z,-2.06
2018-01-20T10:47:59.187Z,-2.03
2018-01-20T10:49:00.175Z,-2.12
2018-01-20T10:49:59.198Z,-2.20
2018-01-20T10:50:59.184Z,-2.26
2018-01-20T10:51:59.198Z,-2.23
2018-01-20T10:53:00.191Z,-2.21
2018-01-20T10:53:59.200Z,-2.18
2018-01-20T10:54:59.201Z,-2.34
2018-01-20T10:55:59.216Z,-2.55
2018-01-20T10:56:59.207Z,-2.58
2018-01-20T10:57:59.219Z,-2.55
2018-01-20T10:58:59.216Z,-2.55
2018-01-20T10:59:59.230Z,-2.49
2018-01-20T11:00:59.228Z,-2.43
2018-01-20T11:01:59.226Z,-2.35
2018-01-20T11:02:59.230Z,-2.37
2018-01-20T11:03:59.235Z,-2.42
2018-01-20T11:04:59.236Z,-2.64
2018-01-20T11:05:59.243Z,-2.81
2018-01-20T11:07:01.239Z,-2.81
2018-01-20T11:07:59.251Z,-2.78
2018-01-20T11:08:59.255Z,-2.70
2018-01-20T11:09:59.259Z,-2.55
2018-01-20T11:10:59.261Z,-2.53
2018-01-20T11:12:00.263Z,-2.32
2018-01-20T11:12:59.270Z,-2.32
2018-01-20T11:13:59.272Z,-2.30
2018-01-20T11:15:00.276Z,-2.23
2018-01-20T11:15:59.280Z,-2.24
2018-01-20T11:16:59.289Z,-2.13
2018-01-20T11:17:59.290Z,-2.00
2018-01-20T11:18:59.297Z,-1.98
2018-01-20T11:19:59.297Z,-1.95
2018-01-20T11:20:59.317Z,-1.95
2018-01-20T11:22:01.293Z,-1.95
2018-01-20T11:22:59.328Z,-1.94
2018-01-20T11:23:59.311Z,-1.92
2018-01-20T11:24:59.314Z,-1.94
2018-01-20T11:25:59.332Z,-1.88
2018-01-20T11:27:00.326Z,-1.94
2018-01-20T11:27:59.333Z,-2.13
2018-01-20T11:28:59.330Z,-2.15
2018-01-20T11:29:59.339Z,-2.15
2018-01-20T11:31:00.344Z,-2.12
2018-01-20T11:31:59.365Z,-2.09
2018-01-20T11:32:59.346Z,-2.15
2018-01-20T11:34:00.355Z,-2.09
2018-01-20T11:34:59.362Z,-2.13
2018-01-20T11:36:00.366Z,-2.12
2018-01-20T11:36:59.376Z,-1.97
2018-01-20T11:37:59.373Z,-2.06
2018-01-20T11:38:59.373Z,-2.08
2018-01-20T11:39:59.391Z,-2.03
2018-01-20T11:40:59.380Z,-2.09
2018-01-20T11:41:59.384Z,-1.98
2018-01-20T11:42:59.388Z,-1.95
2018-01-20T11:43:59.387Z,-1.91
2018-01-20T11:44:59.398Z,-1.85
2018-01-20T11:45:59.403Z,-1.94
2018-01-20T11:47:00.402Z,-2.00
2018-01-20T11:47:59.409Z,-2.06
2018-01-20T11:48:59.413Z,-2.16
2018-01-20T11:49:59.415Z,-2.37
2018-01-20T11:50:59.431Z,-2.53
2018-01-20T11:51:59.439Z,-2.68
2018-01-20T11:53:00.428Z,-2.79
2018-01-20T11:53:59.492Z,-2.82
2018-01-20T11:54:59.447Z,-2.79
2018-01-20T11:55:59.465Z,-2.70
2018-01-20T11:56:59.454Z,-2.78
2018-01-20T11:57:59.446Z,-2.77
2018-01-20T11:58:59.452Z,-2.81
2018-01-20T11:59:59.463Z,-2.79
2018-01-20T12:01:00.463Z,-2.74
2018-01-20T12:01:59.461Z,-2.60
2018-01-20T12:02:59.468Z,-2.50
2018-01-20T12:03:59.473Z,-2.49
2018-01-20T12:04:59.473Z,-2.40
2018-01-20T12:05:59.483Z,-2.27
2018-01-20T12:06:59.483Z,-2.32
2018-01-20T12:08:00.492Z,-2.37
2018-01-20T12:08:59.513Z,-2.48
2018-01-20T12:09:59.492Z,-2.52
2018-01-20T12:10:59.519Z,-2.53
2018-01-20T12:11:59.505Z,-2.56
2018-01-20T12:12:59.504Z,-2.78
2018-01-20T12:13:59.513Z,-2.85
2018-01-20T12:14:59.511Z,-2.96
2018-01-20T12:15:59.542Z,-2.88
2018-01-20T12:16:59.527Z,-2.91
2018-01-20T12:17:59.575Z,-2.81
2018-01-20T12:18:59.536Z,-2.78
2018-01-20T12:19:59.537Z,-2.77
2018-01-20T12:20:59.549Z,-2.71
2018-01-20T12:21:59.542Z,-2.70
2018-01-20T12:22:59.552Z,-2.67
2018-01-20T12:23:59.555Z,-2.78
2018-01-20T12:24:59.560Z,-2.86
2018-01-20T12:26:00.563Z,-3.18
2018-01-20T12:27:00.566Z,-3.42
2018-01-20T12:27:59.565Z,-3.59
2018-01-20T12:28:59.580Z,-3.64
2018-01-20T12:29:59.571Z,-3.79
2018-01-20T12:30:59.576Z,-3.85
2018-01-20T12:31:59.588Z,-3.85
2018-01-20T12:32:59.588Z,-3.79
2018-01-20T12:33:59.603Z,-3.67
2018-01-20T12:34:59.594Z,-3.67
2018-01-20T12:35:59.604Z,-3.88
2018-01-20T12:36:59.605Z,-4.04
2018-01-20T12:37:59.611Z,-4.12
2018-01-20T12:38:59.620Z,-4.17
2018-01-20T12:39:59.621Z,-4.21
2018-01-20T12:41:00.620Z,-4.12
2018-01-20T12:41:59.616Z,-4.10
2018-01-20T12:42:59.624Z,-4.06
2018-01-20T12:43:59.635Z,-4.14
2018-01-20T12:44:59.626Z,-3.96
2018-01-20T12:45:59.635Z,-3.94
2018-01-20T12:46:59.636Z,-3.91
2018-01-20T12:47:59.637Z,-3.78
2018-01-20T12:48:59.645Z,-3.72
2018-01-20T12:49:59.646Z,-3.72
2018-01-20T12:50:59.649Z,-3.72
2018-01-20T12:51:59.677Z,-3.59
2018-01-20T12:52:59.657Z,-3.62